Time;durP1;ratioP1;P1;durP2;ratioP2;P2;SDS_P1;SDS_P2;PMS_P1;PMS_P2;Temp;Humidity;BMP_temperature;BMP_pressure;BME280_temperature;BME280_humidity;BME280_pressure;Samples;Min_cycle;Max_cycle;Signal;HPM_P1;HPM_P2
2023/12/24 00:01:14;;;;;;;6.40;1.60;;;23.30;74.80;;;;;;5055060;28;20642;-73
2023/12/24 00:03:42;;;;;;;9.63;1.50;;;23.10;75.90;;;;;;5043285;28;20187;-69
2023/12/24 00:06:09;;;;;;;7.20;1.87;;;23.10;76.50;;;;;;5064701;28;20182;-73
2023/12/24 00:08:37;;;;;;;9.50;1.67;;;23.00;77.50;;;;;;5054402;28;20176;-67
2023/12/24 00:11:06;;;;;;;6.63;1.57;;;22.90;76.60;;;;;;5054221;28;20191;-67
2023/12/24 00:13:33;;;;;;;6.20;1.83;;;23.00;77.10;;;;;;5056087;28;20206;-71
2023/12/24 00:16:01;;;;;;;7.40;1.50;;;23.10;76.20;;;;;;5040914;28;20740;-66
2023/12/24 00:18:29;;;;;;;7.63;1.70;;;23.10;75.20;;;;;;5062109;28;20207;-70
2023/12/24 00:20:56;;;;;;;9.13;1.73;;;23.30;75.70;;;;;;5054825;28;20201;-70
2023/12/24 00:23:24;;;;;;;6.93;1.60;;;23.30;75.50;;;;;;5066593;28;20182;-70
2023/12/24 00:25:51;;;;;;;8.17;1.43;;;23.30;76.10;;;;;;5063859;28;20191;-68
2023/12/24 00:28:18;;;;;;;13.83;2.33;;;23.20;75.30;;;;;;5044275;28;20193;-71
2023/12/24 00:30:46;;;;;;;11.97;2.03;;;23.20;76.00;;;;;;5068989;28;20684;-67
2023/12/24 00:33:13;;;;;;;7.20;1.70;;;23.10;76.60;;;;;;5062179;28;20207;-73
2023/12/24 00:35:40;;;;;;;15.17;2.63;;;22.90;76.40;;;;;;5062584;28;20268;-67
2023/12/24 00:38:08;;;;;;;6.43;1.60;;;22.90;77.00;;;;;;5059037;28;20220;-73
2023/12/24 00:40:35;;;;;;;7.93;2.00;;;22.80;78.20;;;;;;5054690;28;20219;-71
2023/12/24 00:43:02;;;;;;;12.10;1.97;;;22.80;79.50;;;;;;5039585;28;20223;-72
2023/12/24 00:45:30;;;;;;;5.43;1.80;;;22.60;80.60;;;;;;5051618;28;20184;-70
2023/12/24 00:47:57;;;;;;;6.23;1.80;;;22.40;81.60;;;;;;5061641;28;20270;-68
2023/12/24 00:50:25;;;;;;;8.53;2.07;;;22.30;83.00;;;;;;5057831;28;20180;-67
2023/12/24 00:52:52;;;;;;;10.47;2.53;;;22.30;83.90;;;;;;5062591;28;20638;-66
2023/12/24 00:55:19;;;;;;;13.17;2.83;;;22.20;84.30;;;;;;5068554;28;20202;-67
2023/12/24 00:57:47;;;;;;;11.53;2.50;;;22.20;85.10;;;;;;5062095;28;20595;-69
2023/12/24 01:00:14;;;;;;;7.80;2.50;;;22.00;85.60;;;;;;5062405;28;20183;-67
2023/12/24 01:02:42;;;;;;;14.37;3.10;;;21.80;86.00;;;;;;5064804;28;20179;-69
2023/12/24 01:05:09;;;;;;;14.90;3.50;;;21.70;86.60;;;;;;5058220;28;20179;-69
2023/12/24 01:07:36;;;;;;;19.60;4.77;;;21.50;87.30;;;;;;5063482;28;20183;-68
2023/12/24 01:10:05;;;;;;;9.43;3.97;;;21.50;88.00;;;;;;5043192;28;20539;-69
2023/12/24 01:12:32;;;;;;;15.73;5.37;;;21.50;88.60;;;;;;5062481;28;20232;-70
2023/12/24 01:15:00;;;;;;;18.60;5.20;;;21.50;89.00;;;;;;5068957;28;20318;-70
2023/12/24 01:17:27;;;;;;;19.37;5.57;;;21.40;89.20;;;;;;5064780;28;20183;-70
2023/12/24 01:19:57;;;;;;;16.10;4.93;;;21.20;89.30;;;;;;5055749;28;20573;-71
2023/12/24 01:22:25;;;;;;;15.97;5.27;;;21.20;89.80;;;;;;5049839;28;20630;-70
2023/12/24 01:24:52;;;;;;;20.73;5.87;;;21.10;90.20;;;;;;5060705;28;20190;-70
2023/12/24 01:27:19;;;;;;;14.83;5.53;;;21.10;90.60;;;;;;5057994;28;20601;-71
2023/12/24 01:29:48;;;;;;;19.83;6.70;;;21.00;90.70;;;;;;5057816;28;20202;-70
2023/12/24 01:32:15;;;;;;;21.70;8.67;;;20.90;90.90;;;;;;5053930;28;20184;-72
2023/12/24 01:34:42;;;;;;;17.57;7.67;;;20.80;91.30;;;;;;5049407;28;20234;-70
2023/12/24 01:37:10;;;;;;;16.33;7.07;;;20.70;91.40;;;;;;5047626;28;20198;-71
2023/12/24 01:39:37;;;;;;;16.73;8.37;;;20.70;91.60;;;;;;5045590;28;20234;-72
2023/12/24 01:42:05;;;;;;;23.30;8.50;;;20.60;92.10;;;;;;5055537;28;20325;-72
2023/12/24 01:44:32;;;;;;;16.10;9.53;;;20.60;92.20;;;;;;5041226;28;20606;-71
2023/12/24 01:46:59;;;;;;;20.90;9.80;;;20.60;92.40;;;;;;5055566;28;20231;-71
2023/12/24 01:49:27;;;;;;;18.80;10.03;;;20.50;92.60;;;;;;5044870;28;20177;-71
2023/12/24 01:51:56;;;;;;;26.07;12.00;;;20.50;92.70;;;;;;5051682;28;20185;-70
2023/12/24 01:54:24;;;;;;;18.47;12.70;;;20.60;92.90;;;;;;5055346;28;20173;-70
2023/12/24 01:56:51;;;;;;;17.80;12.43;;;20.50;92.70;;;;;;5064106;28;20286;-69
2023/12/24 01:59:19;;;;;;;15.77;12.80;;;20.30;92.50;;;;;;5066278;28;20637;-69
2023/12/24 02:01:47;;;;;;;21.13;13.30;;;20.10;92.70;;;;;;5062641;28;20184;-69
2023/12/24 02:04:16;;;;;;;17.60;13.00;;;20.00;93.00;;;;;;5061463;28;20705;-71
2023/12/24 02:06:43;;;;;;;23.93;15.97;;;19.90;93.10;;;;;;5059147;28;20668;-69
2023/12/24 02:09:11;;;;;;;23.63;17.90;;;19.70;93.10;;;;;;5053031;28;20637;-70
2023/12/24 02:11:38;;;;;;;24.27;18.17;;;19.70;93.50;;;;;;5050139;28;20190;-69
2023/12/24 02:14:05;;;;;;;27.27;20.57;;;19.80;93.70;;;;;;5064989;28;20195;-69
2023/12/24 02:16:37;;;;;;;25.07;20.63;;;19.80;93.50;;;;;;5052497;28;20226;-69
2023/12/24 02:19:07;;;;;;;26.60;20.13;;;20.20;93.90;;;;;;5061063;28;20221;-68
2023/12/24 02:21:34;;;;;;;29.10;18.77;;;20.20;93.60;;;;;;5051029;28;20176;-69
2023/12/24 02:24:01;;;;;;;23.77;20.87;;;20.20;93.50;;;;;;5045805;28;20274;-68
2023/12/24 02:26:59;;;;;;;23.30;19.17;;;20.40;93.70;;;;;;5045530;28;20176;-68
2023/12/24 02:29:38;;;;;;;25.90;20.53;;;20.50;93.50;;;;;;5045573;28;20196;-68
2023/12/24 02:32:15;;;;;;;26.53;21.50;;;20.50;93.20;;;;;;5056897;28;20597;-68
2023/12/24 02:34:50;;;;;;;22.47;19.93;;;20.60;93.50;;;;;;5058052;28;20226;-68
2023/12/24 02:37:17;;;;;;;23.30;21.00;;;20.70;93.40;;;;;;5060356;28;20249;-67
2023/12/24 02:39:46;;;;;;;29.33;19.30;;;20.50;92.50;;;;;;5060713;28;20237;-68
2023/12/24 02:42:13;;;;;;;22.67;19.93;;;20.30;92.40;;;;;;5059752;28;20195;-68
2023/12/24 02:44:43;;;;;;;27.33;19.00;;;20.20;92.40;;;;;;5060807;28;20176;-69
2023/12/24 02:47:10;;;;;;;23.00;20.57;;;20.30;93.00;;;;;;5053362;28;20188;-68
2023/12/24 02:49:37;;;;;;;23.43;20.97;;;20.40;92.90;;;;;;5058597;28;20190;-67
2023/12/24 02:52:05;;;;;;;22.97;19.10;;;20.60;93.00;;;;;;5058836;28;20217;-68
2023/12/24 02:54:32;;;;;;;26.43;20.17;;;20.70;92.50;;;;;;5063675;28;20179;-68
2023/12/24 02:57:00;;;;;;;23.83;17.60;;;20.80;92.20;;;;;;5064865;28;20187;-68
2023/12/24 02:59:28;;;;;;;28.80;21.23;;;20.90;92.10;;;;;;5058840;28;20234;-67
2023/12/24 03:01:55;;;;;;;24.33;19.20;;;20.90;92.10;;;;;;5066696;28;20198;-66
2023/12/24 03:04:22;;;;;;;25.47;19.00;;;20.90;91.90;;;;;;5062432;28;20175;-68
2023/12/24 03:06:50;;;;;;;30.83;20.13;;;20.90;91.70;;;;;;5065814;28;20642;-68
2023/12/24 03:09:17;;;;;;;23.97;18.00;;;21.20;91.70;;;;;;5063024;28;20575;-67
2023/12/24 03:11:45;;;;;;;23.50;16.20;;;21.30;91.30;;;;;;5067350;28;20233;-68
2023/12/24 03:14:12;;;;;;;20.83;16.83;;;21.20;90.70;;;;;;5063567;28;20175;-68
2023/12/24 03:16:39;;;;;;;26.20;17.30;;;21.20;90.40;;;;;;5061026;28;20257;-68
2023/12/24 03:19:06;;;;;;;27.43;17.50;;;21.30;90.70;;;;;;5058215;28;20229;-68
2023/12/24 03:21:34;;;;;;;26.50;15.17;;;21.40;90.30;;;;;;5061158;28;20182;-68
2023/12/24 03:24:02;;;;;;;29.97;15.20;;;21.80;90.50;;;;;;5062041;28;20252;-69
2023/12/24 03:26:29;;;;;;;21.63;13.93;;;22.10;89.90;;;;;;5060399;28;21417;-68
2023/12/24 03:28:56;;;;;;;27.40;12.27;;;21.90;89.40;;;;;;5062388;28;20186;-68
2023/12/24 03:31:26;;;;;;;26.13;10.27;;;22.00;89.60;;;;;;5068354;28;20700;-68
2023/12/24 03:33:54;;;;;;;19.00;9.63;;;22.00;88.80;;;;;;5059742;28;20187;-67
2023/12/24 03:36:21;;;;;;;26.53;9.97;;;21.60;88.70;;;;;;5057711;28;20208;-67
2023/12/24 03:38:48;;;;;;;23.47;10.97;;;21.60;89.20;;;;;;5066178;28;20175;-68
2023/12/24 03:41:16;;;;;;;17.33;9.37;;;21.70;88.80;;;;;;5066949;28;20258;-68
2023/12/24 03:43:44;;;;;;;28.90;8.90;;;21.80;88.60;;;;;;5050525;28;20259;-68
2023/12/24 03:46:11;;;;;;;19.17;8.40;;;22.00;87.70;;;;;;5056525;28;20678;-72
2023/12/24 03:48:39;;;;;;;22.40;8.03;;;21.80;88.10;;;;;;5056588;28;20184;-67
2023/12/24 03:51:06;;;;;;;18.43;9.80;;;21.80;87.90;;;;;;5049815;28;20192;-68
2023/12/24 03:53:33;;;;;;;23.50;10.60;;;21.80;88.70;;;;;;5052623;28;20176;-67
2023/12/24 03:56:01;;;;;;;24.10;12.77;;;22.00;89.00;;;;;;5051792;28;20273;-68
2023/12/24 03:58:28;;;;;;;19.30;12.27;;;22.20;89.40;;;;;;5051444;28;20571;-67
2023/12/24 04:00:56;;;;;;;19.63;12.03;;;22.30;89.10;;;;;;5053737;28;20179;-68
2023/12/24 04:03:23;;;;;;;27.47;13.57;;;22.60;89.40;;;;;;5058317;28;20576;-68
2023/12/24 04:05:50;;;;;;;20.43;10.43;;;23.20;89.10;;;;;;5059229;28;20241;-68
2023/12/24 04:08:18;;;;;;;17.17;7.53;;;23.70;87.90;;;;;;5050069;28;20199;-68
2023/12/24 04:10:45;;;;;;;17.57;5.30;;;24.20;85.40;;;;;;5054164;28;20360;-70
2023/12/24 04:13:13;;;;;;;22.13;4.57;;;24.00;82.70;;;;;;5041871;28;20176;-70
2023/12/24 04:15:40;;;;;;;19.33;4.67;;;24.80;83.10;;;;;;5056064;28;20257;-70
2023/12/24 04:18:07;;;;;;;16.63;4.00;;;25.10;78.80;;;;;;5057368;28;20245;-69
2023/12/24 04:20:35;;;;;;;15.93;3.57;;;25.10;79.90;;;;;;5051468;28;20611;-67
2023/12/24 04:23:02;;;;;;;13.10;2.97;;;24.80;79.10;;;;;;5051079;28;20196;-68
2023/12/24 04:25:29;;;;;;;18.60;2.93;;;24.60;80.10;;;;;;5050982;28;20183;-68
2023/12/24 04:27:57;;;;;;;12.37;3.00;;;24.00;78.90;;;;;;5054182;28;20184;-68
2023/12/24 04:30:24;;;;;;;13.57;3.17;;;23.90;80.10;;;;;;5052499;28;20263;-68
2023/12/24 04:32:51;;;;;;;9.03;2.83;;;23.80;78.40;;;;;;5060720;28;20740;-68
2023/12/24 04:35:19;;;;;;;15.23;2.70;;;24.10;79.40;;;;;;5061436;28;20199;-67
2023/12/24 04:37:47;;;;;;;12.07;2.63;;;24.40;78.50;;;;;;5061712;28;20225;-73
2023/12/24 04:40:14;;;;;;;9.57;2.20;;;24.80;76.20;;;;;;5066887;28;20672;-68
2023/12/24 04:42:41;;;;;;;12.80;2.53;;;25.20;76.00;;;;;;5062487;28;20266;-67
2023/12/24 04:45:09;;;;;;;9.70;2.60;;;25.40;74.90;;;;;;5062365;28;20236;-67
2023/12/24 04:47:37;;;;;;;14.57;2.33;;;25.30;74.50;;;;;;5064736;28;20691;-68
2023/12/24 04:50:06;;;;;;;10.03;1.93;;;24.70;77.10;;;;;;5061122;28;20188;-68
2023/12/24 04:52:35;;;;;;;10.97;2.03;;;24.60;76.90;;;;;;5061694;28;20176;-68
2023/12/24 04:55:06;;;;;;;7.13;1.70;;;24.60;76.70;;;;;;5058296;28;20237;-67
2023/12/24 04:57:33;;;;;;;7.10;2.07;;;24.60;76.80;;;;;;5065214;28;20186;-69
2023/12/24 05:00:01;;;;;;;10.73;2.33;;;24.50;75.70;;;;;;5059878;28;20184;-67
2023/12/24 05:02:28;;;;;;;7.03;2.20;;;24.50;75.80;;;;;;5062939;28;20180;-68
2023/12/24 05:04:55;;;;;;;5.73;1.73;;;24.50;74.70;;;;;;5059184;28;20187;-68
2023/12/24 05:07:23;;;;;;;6.43;2.17;;;24.30;75.50;;;;;;5068200;28;20180;-67
2023/12/24 05:09:51;;;;;;;7.50;2.13;;;24.30;75.50;;;;;;5059888;28;20194;-68
2023/12/24 05:12:18;;;;;;;9.77;2.37;;;24.20;75.60;;;;;;5058480;28;20183;-70
2023/12/24 05:14:45;;;;;;;15.00;2.30;;;24.00;76.10;;;;;;5060926;28;20661;-68
2023/12/24 05:17:13;;;;;;;7.40;2.23;;;24.00;76.20;;;;;;5066259;28;20190;-70
2023/12/24 05:19:40;;;;;;;8.47;2.20;;;23.80;76.80;;;;;;5040484;28;20198;-73
2023/12/24 05:22:07;;;;;;;10.73;2.03;;;23.80;77.00;;;;;;5059333;28;20192;-67
2023/12/24 05:24:35;;;;;;;7.87;2.27;;;23.70;77.90;;;;;;5065070;28;20179;-68
2023/12/24 05:27:02;;;;;;;9.93;1.90;;;23.60;77.80;;;;;;5058222;28;20180;-68
2023/12/24 05:29:29;;;;;;;6.30;2.03;;;23.60;78.00;;;;;;5059237;28;20183;-70
2023/12/24 05:31:57;;;;;;;12.43;2.80;;;23.50;79.00;;;;;;5064325;28;20686;-67
2023/12/24 05:34:25;;;;;;;16.20;2.47;;;23.60;78.80;;;;;;5052612;28;20245;-67
2023/12/24 05:36:52;;;;;;;8.53;1.97;;;23.70;78.60;;;;;;5056634;28;20215;-71
2023/12/24 05:39:19;;;;;;;12.03;2.47;;;23.60;78.40;;;;;;5057129;28;20187;-70
2023/12/24 05:41:47;;;;;;;9.00;2.37;;;23.60;78.80;;;;;;5053973;28;20228;-71
2023/12/24 05:44:14;;;;;;;8.73;2.57;;;23.50;79.20;;;;;;5054695;28;20206;-70
2023/12/24 05:46:41;;;;;;;9.93;2.47;;;23.30;79.40;;;;;;5053470;28;20200;-77
2023/12/24 05:49:09;;;;;;;7.87;2.10;;;23.20;79.60;;;;;;5054436;28;20268;-69
2023/12/24 05:51:36;;;;;;;5.07;2.10;;;23.00;79.80;;;;;;5056283;28;20194;-68
2023/12/24 05:54:03;;;;;;;7.90;2.47;;;22.30;78.70;;;;;;5056668;28;20192;-68
2023/12/24 05:56:31;;;;;;;7.63;1.97;;;22.10;81.30;;;;;;5054140;28;20237;-68
2023/12/24 05:58:58;;;;;;;1.43;1.00;;;21.70;80.40;;;;;;5052381;28;20188;-69
2023/12/24 06:01:25;;;;;;;1.27;0.70;;;21.10;79.70;;;;;;5054776;28;20187;-69
2023/12/24 06:03:52;;;;;;;0.80;0.57;;;20.60;79.50;;;;;;5053728;28;20290;-70
2023/12/24 06:06:20;;;;;;;1.07;0.80;;;20.40;78.80;;;;;;5054682;28;20634;-68
2023/12/24 06:08:47;;;;;;;7.30;1.70;;;20.20;80.00;;;;;;5060249;28;20180;-69
2023/12/24 06:11:19;;;;;;;7.27;2.13;;;20.20;81.50;;;;;;5062175;28;20707;-69
2023/12/24 06:13:46;;;;;;;6.17;2.33;;;19.70;84.40;;;;;;5054057;28;20215;-71
2023/12/24 06:16:13;;;;;;;2.87;2.03;;;19.30;87.20;;;;;;5063261;28;20246;-69
2023/12/24 06:18:42;;;;;;;1.83;1.73;;;18.90;88.50;;;;;;5059209;28;20642;-70
2023/12/24 06:21:13;;;;;;;3.33;2.50;;;18.60;88.80;;;;;;5061606;28;20190;-72
2023/12/24 06:23:40;;;;;;;3.43;2.43;;;18.50;89.90;;;;;;5061756;28;20195;-71
2023/12/24 06:26:08;;;;;;;4.73;2.47;;;18.40;89.90;;;;;;5060174;28;20226;-72
2023/12/24 06:28:35;;;;;;;4.00;2.90;;;18.30;89.90;;;;;;5065310;28;20187;-70
2023/12/24 06:31:02;;;;;;;3.07;2.87;;;18.30;90.20;;;;;;5060244;28;20180;-71
2023/12/24 06:33:30;;;;;;;3.77;3.57;;;18.60;90.50;;;;;;5066226;28;20227;-70
2023/12/24 06:35:57;;;;;;;4.20;3.90;;;18.90;91.00;;;;;;5065958;28;20211;-71
2023/12/24 06:38:25;;;;;;;4.80;4.43;;;19.10;90.60;;;;;;5064147;28;20184;-71
2023/12/24 06:40:52;;;;;;;4.27;3.97;;;19.10;90.30;;;;;;5059337;28;20231;-69
2023/12/24 06:43:19;;;;;;;3.80;3.60;;;19.00;89.30;;;;;;5051993;28;20187;-69
2023/12/24 06:45:46;;;;;;;6.27;4.83;;;18.90;89.70;;;;;;5063658;28;20172;-68
2023/12/24 06:48:14;;;;;;;9.10;6.13;;;18.80;90.10;;;;;;5064223;28;20251;-69
2023/12/24 06:50:41;;;;;;;17.63;7.20;;;18.90;90.40;;;;;;5062960;28;20184;-69
2023/12/24 06:53:08;;;;;;;12.53;6.27;;;19.00;90.80;;;;;;5062776;28;20194;-67
2023/12/24 06:55:36;;;;;;;10.87;5.57;;;18.90;90.60;;;;;;5063211;28;20200;-67
2023/12/24 06:58:05;;;;;;;7.60;4.87;;;18.90;90.40;;;;;;5067375;28;20179;-68
2023/12/24 07:00:33;;;;;;;8.43;4.53;;;18.80;89.90;;;;;;5066280;28;20258;-66
2023/12/24 07:03:00;;;;;;;6.53;4.17;;;18.80;89.80;;;;;;5064613;28;20275;-69
2023/12/24 07:05:34;;;;;;;4.10;3.50;;;18.80;89.90;;;;;;5056144;28;20630;-68
2023/12/24 07:08:02;;;;;;;5.53;3.70;;;18.80;89.30;;;;;;5061210;28;20183;-68
2023/12/24 07:10:29;;;;;;;6.63;3.90;;;18.90;88.80;;;;;;5060617;28;20184;-67
2023/12/24 07:12:56;;;;;;;6.40;3.73;;;18.80;88.10;;;;;;5060752;28;20270;-68
2023/12/24 07:15:24;;;;;;;4.33;3.33;;;19.00;88.40;;;;;;5054666;28;20271;-67
2023/12/24 07:17:51;;;;;;;7.50;3.83;;;19.00;88.00;;;;;;5037481;28;20630;-67
2023/12/24 07:20:19;;;;;;;5.43;4.13;;;19.10;88.10;;;;;;5070421;28;20306;-67
2023/12/24 07:22:46;;;;;;;13.23;4.37;;;19.20;88.40;;;;;;5062141;28;20203;-69
2023/12/24 07:25:13;;;;;;;13.00;4.50;;;19.30;87.70;;;;;;5061686;28;20187;-67
2023/12/24 07:27:44;;;;;;;12.73;4.73;;;19.30;87.50;;;;;;5058396;28;20183;-67
2023/12/24 07:30:12;;;;;;;7.90;4.40;;;19.30;87.10;;;;;;5062708;28;20210;-71
2023/12/24 07:32:49;;;;;;;17.40;5.33;;;19.40;87.60;;;;;;5063476;28;20236;-67
2023/12/24 07:35:17;;;;;;;10.63;4.80;;;19.50;88.00;;;;;;5058803;28;20247;-69
2023/12/24 07:37:47;;;;;;;16.10;5.20;;;19.70;88.40;;;;;;5053556;28;20187;-68
2023/12/24 07:40:15;;;;;;;17.33;5.60;;;19.70;88.30;;;;;;5057838;28;20218;-68
2023/12/24 07:42:42;;;;;;;23.50;7.17;;;19.70;87.90;;;;;;5057336;28;20223;-68
2023/12/24 07:45:10;;;;;;;15.17;6.60;;;19.80;88.10;;;;;;5055540;28;20195;-68
2023/12/24 07:47:37;;;;;;;21.83;6.60;;;19.80;88.30;;;;;;5069345;28;20612;-68
2023/12/24 07:50:07;;;;;;;19.10;6.77;;;19.80;88.20;;;;;;5057262;28;20664;-67
2023/12/24 07:52:34;;;;;;;17.87;6.03;;;19.80;88.20;;;;;;5058124;28;20207;-70
2023/12/24 07:55:02;;;;;;;21.53;6.10;;;19.80;87.70;;;;;;5065444;28;20676;-69
2023/12/24 07:57:29;;;;;;;17.37;5.43;;;19.80;87.50;;;;;;5071430;28;20187;-72
2023/12/24 07:59:56;;;;;;;14.73;4.87;;;19.80;87.40;;;;;;5055625;28;20650;-74
2023/12/24 08:02:24;;;;;;;16.37;5.43;;;19.80;87.50;;;;;;5067540;28;20550;-69
2023/12/24 08:04:54;;;;;;;14.20;4.70;;;19.90;87.50;;;;;;5054790;28;20179;-68
2023/12/24 08:07:23;;;;;;;13.17;4.40;;;20.00;87.50;;;;;;5059153;28;20198;-73
2023/12/24 08:09:51;;;;;;;17.13;5.20;;;20.10;86.70;;;;;;5055307;28;20263;-68
2023/12/24 08:12:18;;;;;;;13.20;4.57;;;20.00;86.10;;;;;;5058989;28;20188;-72
2023/12/24 08:14:45;;;;;;;15.53;4.47;;;20.10;86.50;;;;;;5056489;28;20677;-68
2023/12/24 08:17:13;;;;;;;18.10;5.37;;;20.20;87.00;;;;;;5064255;28;22066;-68
2023/12/24 08:19:40;;;;;;;18.27;5.90;;;20.10;86.70;;;;;;5057352;28;20542;-67
2023/12/24 08:22:08;;;;;;;19.27;6.67;;;20.00;87.40;;;;;;5056295;28;20550;-73
2023/12/24 08:24:35;;;;;;;17.77;6.90;;;20.00;88.10;;;;;;5056851;28;20634;-68
2023/12/24 08:27:03;;;;;;;20.43;7.23;;;20.00;88.30;;;;;;5056704;28;20192;-73
2023/12/24 08:29:31;;;;;;;22.43;8.37;;;19.90;88.70;;;;;;5057302;28;20188;-68
2023/12/24 08:31:58;;;;;;;21.30;9.13;;;19.90;89.10;;;;;;5054860;28;20171;-71
2023/12/24 08:34:26;;;;;;;33.17;9.17;;;19.90;89.60;;;;;;5057151;28;20184;-68
2023/12/24 08:36:53;;;;;;;24.47;9.30;;;19.80;89.70;;;;;;5060967;28;20222;-69
2023/12/24 08:39:20;;;;;;;17.13;8.20;;;19.70;89.60;;;;;;5062011;28;20184;-69
2023/12/24 08:41:48;;;;;;;15.30;7.37;;;19.60;89.60;;;;;;5060416;28;20241;-73
2023/12/24 08:44:16;;;;;;;20.33;7.50;;;19.60;89.50;;;;;;5056596;28;20202;-68
2023/12/24 08:46:47;;;;;;;12.47;6.57;;;19.40;89.10;;;;;;5064467;28;20587;-70
2023/12/24 08:49:16;;;;;;;13.57;6.97;;;19.50;89.40;;;;;;5048531;28;20180;-69
2023/12/24 08:51:46;;;;;;;13.63;6.43;;;19.50;89.40;;;;;;5053512;28;20249;-73
2023/12/24 08:54:16;;;;;;;10.80;6.30;;;19.30;88.80;;;;;;5053668;28;20572;-68
2023/12/24 08:56:43;;;;;;;15.57;7.43;;;19.30;88.90;;;;;;5069329;28;20214;-72
2023/12/24 08:59:11;;;;;;;17.27;8.27;;;19.30;89.00;;;;;;5063320;28;20184;-71
2023/12/24 09:01:42;;;;;;;24.73;9.67;;;19.30;89.20;;;;;;5064673;28;20180;-76
2023/12/24 09:04:09;;;;;;;22.27;9.10;;;19.30;89.20;;;;;;5063148;28;20552;-69
2023/12/24 09:06:40;;;;;;;26.23;9.00;;;19.30;89.40;;;;;;5058370;28;20542;-70
2023/12/24 09:09:08;;;;;;;19.93;9.53;;;19.30;89.60;;;;;;5055959;28;20183;-67
2023/12/24 09:11:37;;;;;;;18.57;10.00;;;19.30;89.80;;;;;;5054080;28;20186;-66
2023/12/24 09:14:04;;;;;;;18.90;9.97;;;19.30;89.90;;;;;;5060714;28;20190;-68
2023/12/24 09:16:31;;;;;;;18.50;9.50;;;19.30;90.00;;;;;;5055723;28;20220;-72
2023/12/24 09:18:59;;;;;;;19.47;10.57;;;19.30;90.00;;;;;;5061712;28;20215;-75
2023/12/24 09:21:26;;;;;;;27.00;11.63;;;19.30;90.00;;;;;;5055913;28;20192;-67
2023/12/24 09:23:54;;;;;;;16.50;10.63;;;19.30;90.00;;;;;;5069101;28;20180;-66
2023/12/24 09:26:22;;;;;;;27.57;9.90;;;19.30;90.30;;;;;;5064512;28;20846;-68
2023/12/24 09:28:49;;;;;;;16.57;9.97;;;19.40;90.50;;;;;;5063061;28;20190;-67
2023/12/24 09:31:17;;;;;;;22.27;10.47;;;19.40;90.40;;;;;;5068088;28;20183;-66
2023/12/24 09:33:44;;;;;;;17.00;10.50;;;19.50;90.60;;;;;;5060077;28;20511;-71
2023/12/24 09:36:13;;;;;;;17.50;10.93;;;19.50;90.60;;;;;;5065006;28;20757;-66
2023/12/24 09:38:41;;;;;;;18.60;11.30;;;19.60;90.70;;;;;;5062847;28;20187;-67
2023/12/24 09:41:08;;;;;;;18.47;11.40;;;19.70;90.80;;;;;;5063176;28;20250;-69
2023/12/24 09:43:38;;;;;;;19.70;11.63;;;19.70;90.80;;;;;;5060146;28;20187;-67
2023/12/24 09:46:05;;;;;;;14.97;12.77;;;19.80;90.80;;;;;;5058818;28;20206;-67
2023/12/24 09:48:34;;;;;;;28.77;13.63;;;19.80;90.80;;;;;;5062139;28;20175;-67
2023/12/24 09:51:02;;;;;;;22.77;13.60;;;19.80;90.90;;;;;;5067630;28;20184;-66
2023/12/24 09:53:30;;;;;;;22.33;13.30;;;19.90;91.00;;;;;;5064281;28;20184;-67
2023/12/24 09:55:59;;;;;;;23.70;13.40;;;19.90;91.20;;;;;;5057456;28;20270;-67
2023/12/24 09:58:26;;;;;;;20.50;13.43;;;19.90;91.10;;;;;;5058524;28;20179;-66
2023/12/24 10:00:54;;;;;;;24.93;13.60;;;20.00;91.30;;;;;;5067666;28;20214;-66
2023/12/24 10:03:21;;;;;;;22.33;13.97;;;20.00;91.30;;;;;;5060448;28;20633;-66
2023/12/24 10:06:03;;;;;;;20.97;14.40;;;20.00;91.40;;;;;;5062699;28;20183;-68
2023/12/24 10:08:31;;;;;;;29.90;16.90;;;20.10;91.50;;;;;;5063028;28;20259;-67
2023/12/24 10:11:16;;;;;;;17.67;15.30;;;20.10;91.50;;;;;;5056587;28;20193;-68
2023/12/24 10:13:57;;;;;;;22.40;15.47;;;20.10;91.50;;;;;;5051436;28;20188;-67
2023/12/24 10:16:24;;;;;;;21.50;17.13;;;20.10;91.70;;;;;;5051460;28;20203;-66
2023/12/24 10:18:54;;;;;;;25.93;18.50;;;20.10;91.70;;;;;;5064368;28;20179;-67
2023/12/24 10:21:22;;;;;;;25.40;18.07;;;20.10;91.70;;;;;;5058939;28;20262;-67
2023/12/24 10:23:49;;;;;;;33.07;19.23;;;20.10;91.80;;;;;;5062593;28;20697;-72
2023/12/24 10:26:20;;;;;;;33.70;23.33;;;20.10;91.90;;;;;;5056402;28;20703;-71
2023/12/24 10:28:53;;;;;;;35.87;32.03;;;20.10;92.40;;;;;;5062285;28;20184;-72
2023/12/24 10:31:20;;;;;;;30.47;28.37;;;20.10;92.60;;;;;;5065553;28;20651;-72
2023/12/24 10:33:47;;;;;;;36.67;34.17;;;20.00;92.70;;;;;;5054927;28;20250;-74
2023/12/24 10:36:15;;;;;;;37.50;34.90;;;19.90;92.90;;;;;;5059465;28;20773;-74
2023/12/24 10:38:44;;;;;;;41.53;38.73;;;19.80;93.00;;;;;;5056823;28;20249;-72
2023/12/24 10:41:11;;;;;;;44.83;41.63;;;19.70;93.30;;;;;;5052962;28;20284;-71
2023/12/24 10:43:38;;;;;;;50.77;47.07;;;19.60;93.30;;;;;;5061422;28;20176;-72
2023/12/24 10:46:05;;;;;;;56.50;52.27;;;19.50;93.50;;;;;;5056355;28;20176;-70
2023/12/24 10:48:33;;;;;;;65.07;60.73;;;19.50;93.70;;;;;;5072307;28;20174;-72
2023/12/24 10:51:00;;;;;;;74.70;69.80;;;19.50;93.90;;;;;;5056994;28;20183;-70
2023/12/24 10:53:27;;;;;;;81.07;75.73;;;19.60;94.00;;;;;;5053958;28;20656;-71
2023/12/24 10:56:06;;;;;;;87.07;81.00;;;19.60;94.10;;;;;;5052942;28;20219;-70
2023/12/24 10:58:51;;;;;;;85.90;80.23;;;19.60;94.10;;;;;;5050391;28;20180;-72
2023/12/24 11:01:18;;;;;;;93.77;88.03;;;19.60;94.30;;;;;;5053460;28;20187;-69
2023/12/24 11:03:47;;;;;;;105.10;98.60;;;19.60;94.30;;;;;;5053071;28;20176;-70
2023/12/24 11:06:36;;;;;;;114.83;107.47;;;19.70;94.40;;;;;;5052200;28;20184;-71
2023/12/24 11:09:29;;;;;;;112.47;105.40;;;19.60;94.40;;;;;;5058737;28;20191;-72
2023/12/24 11:12:01;;;;;;;123.97;116.60;;;19.60;94.50;;;;;;5011295;28;20275;-71
2023/12/24 11:14:48;;;;;;;135.00;126.83;;;19.70;94.60;;;;;;5052138;28;20191;-72
2023/12/24 11:17:37;;;;;;;133.60;125.97;;;19.70;94.60;;;;;;5053058;28;20215;-72
2023/12/24 11:20:26;;;;;;;131.50;124.07;;;19.70;94.60;;;;;;5046206;28;20187;-70
2023/12/24 11:23:05;;;;;;;136.27;128.53;;;19.60;94.60;;;;;;5054260;28;20180;-71
2023/12/24 11:25:44;;;;;;;127.00;119.57;;;19.50;94.60;;;;;;5053241;28;20179;-73
2023/12/24 11:28:24;;;;;;;136.00;128.20;;;19.60;94.70;;;;;;5040146;28;20696;-70
2023/12/24 11:30:51;;;;;;;134.60;126.50;;;19.60;94.80;;;;;;5052196;28;20180;-72
2023/12/24 11:33:36;;;;;;;140.93;131.53;;;19.60;94.80;;;;;;5054102;28;20180;-74
2023/12/24 11:36:11;;;;;;;150.73;141.60;;;19.70;94.90;;;;;;5051457;28;20214;-71
2023/12/24 11:38:42;;;;;;;153.20;143.67;;;19.70;94.90;;;;;;5053436;28;20590;-73
2023/12/24 11:41:13;;;;;;;153.57;143.90;;;19.70;94.90;;;;;;5063941;28;20701;-70
2023/12/24 11:43:58;;;;;;;162.33;153.00;;;19.80;95.00;;;;;;5071313;28;20175;-72
2023/12/24 11:46:30;;;;;;;169.37;159.17;;;19.70;95.00;;;;;;5055215;28;20183;-72
2023/12/24 11:49:03;;;;;;;173.30;162.23;;;19.70;95.00;;;;;;5068222;28;20179;-72
2023/12/24 11:51:31;;;;;;;173.00;162.90;;;19.70;95.10;;;;;;5066301;28;20702;-72
2023/12/24 11:54:00;;;;;;;174.37;163.63;;;19.70;95.00;;;;;;5071965;28;20179;-71
2023/12/24 11:56:29;;;;;;;188.33;177.50;;;19.70;95.00;;;;;;5062836;28;20281;-72
2023/12/24 11:59:00;;;;;;;188.57;177.10;;;19.70;95.00;;;;;;5052604;28;20184;-71
2023/12/24 12:01:34;;;;;;;194.00;181.60;;;19.60;95.00;;;;;;5050237;28;20253;-71
2023/12/24 12:04:03;;;;;;;193.30;181.10;;;19.50;95.00;;;;;;5060940;28;20234;-71
2023/12/24 12:06:35;;;;;;;196.17;183.77;;;19.60;95.10;;;;;;5054631;28;20593;-69
2023/12/24 12:09:10;;;;;;;195.77;183.90;;;19.60;95.10;;;;;;5067529;28;20536;-70
2023/12/24 12:11:37;;;;;;;194.97;183.70;;;19.60;95.20;;;;;;5070129;28;20190;-71
2023/12/24 12:14:08;;;;;;;198.60;186.73;;;19.60;95.20;;;;;;5070448;28;20186;-72
2023/12/24 12:16:35;;;;;;;178.70;168.03;;;19.70;95.20;;;;;;5068478;28;20604;-72
2023/12/24 12:19:02;;;;;;;187.60;175.73;;;19.60;95.10;;;;;;5071735;28;20182;-71
2023/12/24 12:21:30;;;;;;;192.47;181.17;;;19.60;95.20;;;;;;5069180;28;20296;-71
2023/12/24 12:23:57;;;;;;;184.10;172.47;;;19.60;95.10;;;;;;5065206;28;20236;-71
2023/12/24 12:26:28;;;;;;;173.07;162.30;;;19.50;95.20;;;;;;5066793;28;20192;-71
2023/12/24 12:28:55;;;;;;;177.03;166.57;;;19.50;95.20;;;;;;5048727;28;20180;-70
2023/12/24 12:31:22;;;;;;;174.43;164.60;;;19.50;95.20;;;;;;5056555;28;20183;-70
2023/12/24 12:33:50;;;;;;;188.73;177.83;;;19.40;95.10;;;;;;5065626;28;20184;-71
2023/12/24 12:36:17;;;;;;;183.80;173.00;;;19.30;95.10;;;;;;5071685;28;20211;-71
2023/12/24 12:38:44;;;;;;;178.13;168.33;;;19.30;95.20;;;;;;5060917;28;20638;-71
2023/12/24 12:41:12;;;;;;;182.13;171.70;;;19.30;95.20;;;;;;5055739;28;20223;-71